Terminal Aerodrome Forecast
Issued by NWS

Home | Current Version | Previous Version | Text Only | Print | Product List | Glossary On
Versions: 1 2 3 4 5 6 7 8 9 10 11 12 13 14 15 16 17 18 19 20 21 22 23 24 25
000
FTUS44 KLIX 290500
TAFHDC
TAF
KHDC 290520Z 2906/3006 13004KT P6SM SCT250
     FM291500 12007KT P6SM VCSH SCT040 BKN060
      TEMPO 2920/2924 3SM -TSRA SCT030CB BKN040
     FM300200 13003KT P6SM SCT050 BKN100=

USA.gov is the U.S. government's official web portal to all federal, state and local government web resources and services.